Disclaimer

Please do not use the information listed here in-flight or in-navigation, as they are not provided to us by the airports but are provided by volunteers, so they might be outdated.

Search


Regions


Airport information page

Radio informations:
STRASBOURG TWR - 126.875 MHz
STRASBOURG GND - 121.8 MHz
STRASBOURG ATIS - 126.925 MHz
STRASBOURG APP - 119.45 MHz

Airport informations:
Latitude: 48° 32' 17.95" N
Longitude: 007° 37' 41.64" E
Elevation: 505 feet - 154 meters
Operating hours: 24 hour operations
Operating agency: Civil government, landing fees and diplomatic clearance may be required
Timezone: UTC+1(+2DT) - Last Sunday in March to last Sunday in October
Fuel: Jet A1+, Jet A1 with icing inhibitor.

100/130 MIL Spec, low lead, aviation gasoline (BLUE)

Runway information:
05/23 - 7874 x 148 feet< - >2400 x 45 meters

Recent METARs:
LFST 210300Z AUTO 36004KT 6000 NSC M01/M02 Q1010 TEMPO 4000 BR OVC003
LFST 210330Z AUTO 29004KT 270V330 6000 FEW006 OVC110 M00/M01 Q1011 TEMPO 4000 BR OVC003
LFST 210400Z AUTO 32003KT 6000 BKN006 OVC110 M00/M01 Q1011 TEMPO 4000 BR OVC003

Airport on the map: